createdAt,value
2022-09-30T00:00:22.648Z,100484.31
2022-09-30T00:02:51.664Z,100484.66
2022-09-30T00:05:20.835Z,100476.22
2022-09-30T00:07:50.321Z,100488.09
2022-09-30T00:10:20.675Z,100484.06
2022-09-30T00:12:49.678Z,100484.19
2022-09-30T00:15:20.010Z,100488.59
2022-09-30T00:17:49.109Z,100489.06
2022-09-30T00:20:19.550Z,100482.91
2022-09-30T00:22:48.707Z,100486.34
2022-09-30T00:25:17.937Z,100490.75
2022-09-30T00:27:48.410Z,100496.44
2022-09-30T00:30:17.567Z,100499.75
2022-09-30T00:32:46.601Z,100495.09
2022-09-30T00:35:20.459Z,100498.31
2022-09-30T00:37:51.473Z,100497.13
2022-09-30T00:40:21.963Z,100499.13
2022-09-30T00:42:52.433Z,100496.41
2022-09-30T00:45:21.761Z,100496.28
2022-09-30T00:47:55.378Z,100500.16
2022-09-30T00:50:34.319Z,100500.06
2022-09-30T00:53:10.112Z,100505.75
2022-09-30T00:55:52.534Z,100505.97
2022-09-30T00:58:29.015Z,100508.00
2022-09-30T01:01:00.056Z,100511.09
2022-09-30T01:03:33.141Z,100513.81
2022-09-30T01:06:03.169Z,100505.88
2022-09-30T01:08:34.629Z,100511.44
2022-09-30T01:11:07.992Z,100507.44
2022-09-30T01:13:40.702Z,100507.19
2022-09-30T01:16:42.353Z,100503.72
2022-09-30T01:19:27.607Z,100508.25
2022-09-30T01:22:25.459Z,100515.50
2022-09-30T01:25:26.505Z,100512.56
2022-09-30T01:28:25.987Z,100519.53
2022-09-30T01:31:15.525Z,100513.41
2022-09-30T01:33:53.880Z,100519.22
2022-09-30T01:36:35.473Z,100512.81
2022-09-30T01:39:30.621Z,100509.59
2022-09-30T01:42:11.116Z,100514.25
2022-09-30T01:44:48.891Z,100514.25
2022-09-30T01:47:26.415Z,100513.16
2022-09-30T01:50:02.045Z,100516.59
2022-09-30T01:52:40.000Z,100509.03
2022-09-30T01:55:14.922Z,100513.88
2022-09-30T01:57:52.766Z,100525.38
2022-09-30T02:00:22.245Z,100522.31
2022-09-30T02:02:57.394Z,100523.97
2022-09-30T02:05:32.101Z,100518.88
2022-09-30T02:08:06.831Z,100516.97
2022-09-30T02:10:44.916Z,100528.94
2022-09-30T02:13:20.194Z,100526.22
2022-09-30T02:15:54.741Z,100529.19
2022-09-30T02:18:32.442Z,100533.56
2022-09-30T02:21:05.244Z,100535.56
2022-09-30T02:23:40.699Z,100545.91
2022-09-30T02:26:15.349Z,100544.25
2022-09-30T02:28:49.534Z,100546.50
2022-09-30T02:31:21.995Z,100552.56
2022-09-30T02:33:57.558Z,100548.63
2022-09-30T02:36:31.522Z,100552.22
2022-09-30T02:39:06.065Z,100554.09
2022-09-30T02:41:39.836Z,100560.63
2022-09-30T02:44:09.241Z,100558.38
2022-09-30T02:46:47.714Z,100563.00
2022-09-30T02:49:24.180Z,100574.63
2022-09-30T02:52:08.263Z,100566.91
2022-09-30T02:54:48.330Z,100567.50
2022-09-30T03:01:25.343Z,100563.25
2022-09-30T03:03:57.734Z,100565.13
2022-09-30T03:06:28.726Z,100572.94
2022-09-30T03:08:58.126Z,100560.97
2022-09-30T03:11:30.022Z,100565.59
2022-09-30T03:14:25.964Z,100570.09
2022-09-30T03:17:24.368Z,100565.94
2022-09-30T03:20:10.070Z,100579.00
2022-09-30T03:23:01.430Z,100579.94
2022-09-30T03:25:41.126Z,100580.19
2022-09-30T03:28:22.835Z,100585.63
2022-09-30T03:30:58.777Z,100582.19
2022-09-30T03:33:36.770Z,100588.34
2022-09-30T03:36:12.490Z,100586.44
2022-09-30T03:38:51.758Z,100588.34
2022-09-30T03:41:28.497Z,100588.34
2022-09-30T03:44:03.172Z,100586.34
2022-09-30T03:46:37.311Z,100587.28
2022-09-30T03:49:09.696Z,100583.81
2022-09-30T03:51:40.393Z,100585.03
2022-09-30T03:54:12.682Z,100590.63
2022-09-30T03:56:43.105Z,100594.16
2022-09-30T03:59:14.340Z,100594.16
2022-09-30T04:01:43.465Z,100596.66
2022-09-30T04:04:13.326Z,100598.78
2022-09-30T04:06:42.404Z,100600.72
2022-09-30T04:09:12.821Z,100591.22
2022-09-30T04:11:41.812Z,100592.88
2022-09-30T04:14:10.973Z,100599.72
2022-09-30T04:16:40.679Z,100600.47
2022-09-30T04:19:10.238Z,100608.19
2022-09-30T04:21:39.265Z,100615.78
2022-09-30T04:24:08.823Z,100615.66
2022-09-30T04:26:39.245Z,100626.91
2022-09-30T04:29:08.413Z,100620.66
2022-09-30T04:31:37.522Z,100628.50
2022-09-30T04:34:06.505Z,100632.75
2022-09-30T04:36:35.511Z,100631.78
2022-09-30T04:39:04.663Z,100640.22
2022-09-30T04:41:34.212Z,100628.50
2022-09-30T04:44:06.672Z,100631.22
2022-09-30T04:46:37.078Z,100637.28
2022-09-30T04:49:09.343Z,100637.16
2022-09-30T04:51:43.941Z,100649.16
2022-09-30T04:54:13.482Z,100640.72
2022-09-30T04:56:42.454Z,100650.09
2022-09-30T04:59:12.771Z,100658.66
2022-09-30T05:01:43.397Z,100662.09
2022-09-30T05:04:13.071Z,100665.53
2022-09-30T05:06:42.145Z,100658.41
2022-09-30T05:09:11.289Z,100667.66
2022-09-30T05:11:42.196Z,100670.03
2022-09-30T05:14:12.779Z,100665.75
2022-09-30T05:16:41.834Z,100670.13
2022-09-30T05:19:11.128Z,100675.25
2022-09-30T05:21:42.022Z,100673.72
2022-09-30T05:24:11.047Z,100667.53
2022-09-30T05:26:40.621Z,100675.72
2022-09-30T05:29:10.570Z,100678.22
2022-09-30T05:31:42.485Z,100684.38
2022-09-30T05:34:11.767Z,100686.38
2022-09-30T05:36:40.685Z,100678.22
2022-09-30T05:39:10.366Z,100688.53
2022-09-30T05:41:39.500Z,100683.56
2022-09-30T05:44:09.314Z,100690.41
2022-09-30T05:46:39.789Z,100693.88
2022-09-30T05:49:08.890Z,100699.22
2022-09-30T05:51:38.006Z,100692.66
2022-09-30T05:54:07.314Z,100698.72
2022-09-30T05:56:38.236Z,100703.09
2022-09-30T05:59:07.539Z,100699.78
2022-09-30T06:01:37.481Z,100703.22
2022-09-30T06:04:07.815Z,100698.72
2022-09-30T06:06:36.974Z,100702.28
2022-09-30T06:09:06.327Z,100705.00
2022-09-30T06:11:35.460Z,100699.78
2022-09-30T06:14:04.867Z,100703.44
2022-09-30T06:16:33.952Z,100705.94
2022-09-30T06:19:03.057Z,100701.78
2022-09-30T06:21:33.587Z,100709.25
2022-09-30T06:24:02.743Z,100711.78
2022-09-30T06:26:31.728Z,100711.66
2022-09-30T06:29:01.074Z,100719.38
2022-09-30T06:31:30.947Z,100723.31
2022-09-30T06:34:01.673Z,100729.84
2022-09-30T06:36:33.381Z,100719.22
2022-09-30T06:39:03.151Z,100715.53
2022-09-30T06:41:32.326Z,100716.97
2022-09-30T06:44:06.379Z,100717.06
2022-09-30T06:46:39.935Z,100718.03
2022-09-30T06:49:14.062Z,100712.69
2022-09-30T06:51:44.458Z,100721.72
2022-09-30T06:54:13.495Z,100718.88
2022-09-30T06:56:44.075Z,100722.69
2022-09-30T06:59:15.650Z,100726.50
2022-09-30T07:01:45.447Z,100733.91
2022-09-30T07:04:14.883Z,100725.72
2022-09-30T07:06:45.520Z,100729.50
2022-09-30T07:09:14.764Z,100729.75
2022-09-30T07:11:43.963Z,100723.09
2022-09-30T07:14:14.136Z,100739.34
2022-09-30T07:16:45.277Z,100735.66
2022-09-30T07:19:14.716Z,100734.38
2022-09-30T07:21:45.071Z,100740.56
2022-09-30T07:24:14.136Z,100729.00
2022-09-30T07:26:45.101Z,100731.69
2022-09-30T07:29:15.174Z,100728.47
2022-09-30T07:31:44.387Z,100732.56
2022-09-30T07:34:13.537Z,100726.50
2022-09-30T07:36:45.179Z,100726.97
2022-09-30T07:39:14.248Z,100727.06
2022-09-30T07:41:45.119Z,100722.41
2022-09-30T07:44:16.029Z,100729.50
2022-09-30T07:46:45.908Z,100734.81
2022-09-30T07:49:24.734Z,100730.59
2022-09-30T07:51:57.042Z,100732.13
2022-09-30T07:54:28.975Z,100729.44
2022-09-30T07:57:16.444Z,100745.75
2022-09-30T07:59:45.762Z,100734.19
2022-09-30T08:02:17.269Z,100744.34
2022-09-30T08:04:46.556Z,100747.44
2022-09-30T08:07:18.781Z,100736.56
2022-09-30T08:09:47.999Z,100745.34
2022-09-30T08:12:17.239Z,100747.53
2022-09-30T08:14:46.211Z,100746.75
2022-09-30T08:17:15.267Z,100752.41
2022-09-30T08:19:44.935Z,100744.25
2022-09-30T08:22:15.048Z,100743.31
2022-09-30T08:24:45.377Z,100745.50
2022-09-30T08:27:14.488Z,100741.47
2022-09-30T08:29:54.394Z,100746.09
2022-09-30T08:32:25.085Z,100742.56
2022-09-30T08:34:54.148Z,100738.59
2022-09-30T08:37:23.778Z,100745.72
2022-09-30T08:39:54.306Z,100756.78
2022-09-30T08:42:38.808Z,100763.88
2022-09-30T08:45:21.479Z,100753.44
2022-09-30T08:48:00.916Z,100753.56
2022-09-30T08:50:35.933Z,100757.34
2022-09-30T08:53:11.011Z,100760.56
2022-09-30T08:55:44.830Z,100756.75
2022-09-30T08:58:26.491Z,100751.53
2022-09-30T09:01:00.543Z,100751.91
2022-09-30T09:03:31.455Z,100756.50
2022-09-30T09:06:12.303Z,100753.25
2022-09-30T09:08:57.175Z,100756.09
2022-09-30T09:11:44.770Z,100765.00
2022-09-30T09:14:29.645Z,100768.72
2022-09-30T09:17:15.644Z,100765.69
2022-09-30T09:19:55.097Z,100759.84
2022-09-30T09:22:25.498Z,100761.03
2022-09-30T09:24:55.724Z,100757.88
2022-09-30T09:30:06.664Z,100759.53
2022-09-30T09:32:36.691Z,100765.03
2022-09-30T09:35:14.668Z,100759.56
2022-09-30T09:38:14.291Z,100759.16
2022-09-30T09:40:57.600Z,100761.53
2022-09-30T09:43:38.562Z,100765.63
2022-09-30T09:46:18.223Z,100766.44
2022-09-30T09:48:47.576Z,100768.19
2022-09-30T09:51:25.404Z,100766.91
2022-09-30T09:53:58.048Z,100768.50
2022-09-30T09:56:32.495Z,100772.41
2022-09-30T09:59:18.054Z,100775.25
2022-09-30T10:01:51.071Z,100772.72
2022-09-30T10:04:24.348Z,100773.66
2022-09-30T10:06:57.680Z,100785.66
2022-09-30T10:09:30.488Z,100780.47
2022-09-30T10:12:19.591Z,100767.69
2022-09-30T10:14:58.058Z,100767.16
2022-09-30T10:17:30.451Z,100775.09
2022-09-30T10:20:04.903Z,100777.31
2022-09-30T10:22:35.412Z,100783.22
2022-09-30T10:25:23.349Z,100780.41
2022-09-30T10:27:56.742Z,100786.66
2022-09-30T10:30:42.224Z,100790.63
2022-09-30T10:33:22.236Z,100786.78
2022-09-30T10:36:03.252Z,100785.34
2022-09-30T10:38:34.610Z,100787.31
2022-09-30T10:41:06.186Z,100780.63
2022-09-30T10:43:43.195Z,100788.72
2022-09-30T10:46:26.214Z,100787.03
2022-09-30T10:48:58.974Z,100792.19
2022-09-30T10:51:33.838Z,100789.84
2022-09-30T10:54:03.389Z,100787.63
2022-09-30T10:56:42.127Z,100789.41
2022-09-30T10:59:34.897Z,100791.09
2022-09-30T11:02:23.619Z,100784.25
2022-09-30T11:05:02.993Z,100787.72
2022-09-30T11:07:37.912Z,100780.13
2022-09-30T11:10:18.133Z,100793.13
2022-09-30T11:12:55.885Z,100784.75
2022-09-30T11:15:31.427Z,100781.56
2022-09-30T11:18:05.764Z,100775.72
2022-09-30T11:20:40.408Z,100781.94
2022-09-30T11:23:21.499Z,100777.50
2022-09-30T11:26:01.829Z,100778.88
2022-09-30T11:28:46.597Z,100770.44
2022-09-30T11:31:27.334Z,100772.06
2022-09-30T11:34:16.563Z,100772.22
2022-09-30T11:36:56.837Z,100763.47
2022-09-30T11:39:47.541Z,100767.63
2022-09-30T11:42:26.423Z,100755.63
2022-09-30T11:45:01.915Z,100754.16
2022-09-30T11:47:50.858Z,100752.25
2022-09-30T11:50:47.106Z,100759.38
2022-09-30T11:53:26.947Z,100766.03
2022-09-30T11:56:10.208Z,100763.84
2022-09-30T11:58:44.557Z,100748.81
2022-09-30T12:01:23.905Z,100754.19
2022-09-30T12:04:01.427Z,100755.41
2022-09-30T12:06:38.852Z,100753.63
2022-09-30T12:09:17.512Z,100746.34
2022-09-30T12:11:54.255Z,100744.13
2022-09-30T12:14:31.645Z,100755.00
2022-09-30T12:17:04.313Z,100756.56
2022-09-30T12:19:39.606Z,100761.91
2022-09-30T12:22:15.174Z,100754.97
2022-09-30T12:24:46.007Z,100769.66
2022-09-30T12:27:21.424Z,100760.06
2022-09-30T12:30:15.655Z,100767.63
2022-09-30T12:33:14.140Z,100766.28
2022-09-30T12:35:58.786Z,100770.81
2022-09-30T12:38:54.812Z,100768.59
2022-09-30T12:41:39.101Z,100768.25
2022-09-30T12:44:45.310Z,100765.75
2022-09-30T12:47:32.581Z,100755.28
2022-09-30T12:50:08.167Z,100751.84
2022-09-30T12:52:38.460Z,100744.78
2022-09-30T12:55:17.295Z,100747.97
2022-09-30T12:57:47.933Z,100750.19
2022-09-30T13:00:19.325Z,100746.06
2022-09-30T13:02:54.546Z,100739.47
2022-09-30T13:05:48.472Z,100743.78
2022-09-30T13:09:06.317Z,100758.22
2022-09-30T13:11:39.643Z,100745.88
2022-09-30T13:14:39.397Z,100746.94
2022-09-30T13:17:27.270Z,100746.47
2022-09-30T13:19:58.597Z,100744.66
2022-09-30T13:23:00.642Z,100742.44
2022-09-30T13:25:56.101Z,100738.50
2022-09-30T13:28:32.280Z,100743.81
2022-09-30T13:31:19.087Z,100746.06
2022-09-30T13:34:05.098Z,100746.66
2022-09-30T13:36:41.390Z,100749.25
2022-09-30T13:39:21.592Z,100746.97
2022-09-30T13:42:05.883Z,100747.88
2022-09-30T13:44:45.542Z,100743.38
2022-09-30T13:47:26.710Z,100745.63
2022-09-30T13:50:03.726Z,100743.88
2022-09-30T13:52:38.132Z,100734.53
2022-09-30T13:55:16.018Z,100737.09
2022-09-30T13:57:57.297Z,100724.25
2022-09-30T14:00:41.457Z,100727.81
2022-09-30T14:03:40.674Z,100734.34
2022-09-30T14:06:20.313Z,100731.03
2022-09-30T14:09:19.517Z,100725.63
2022-09-30T14:12:08.531Z,100718.31
2022-09-30T14:15:10.485Z,100715.09
2022-09-30T14:18:00.285Z,100720.81
2022-09-30T14:20:44.017Z,100714.03
2022-09-30T14:23:17.453Z,100723.25
2022-09-30T14:25:56.614Z,100727.56
2022-09-30T14:28:35.537Z,100727.66
2022-09-30T14:31:13.537Z,100723.19
2022-09-30T14:33:48.818Z,100725.28
2022-09-30T14:36:21.778Z,100728.19
2022-09-30T14:38:56.753Z,100725.25
2022-09-30T14:41:28.491Z,100720.38
2022-09-30T14:44:02.863Z,100712.81
2022-09-30T14:46:36.887Z,100712.28
2022-09-30T14:49:10.183Z,100703.97
2022-09-30T14:51:43.693Z,100705.00
2022-09-30T14:54:19.187Z,100708.81
2022-09-30T14:56:49.552Z,100701.09
2022-09-30T14:59:20.958Z,100698.13
2022-09-30T15:01:52.422Z,100696.25
2022-09-30T15:04:27.304Z,100705.91
2022-09-30T15:07:01.377Z,100698.41
2022-09-30T15:09:43.730Z,100700.50
2022-09-30T15:12:15.144Z,100700.97
2022-09-30T15:14:48.810Z,100708.47
2022-09-30T15:17:21.024Z,100708.56
2022-09-30T15:19:52.136Z,100710.53
2022-09-30T15:22:23.209Z,100713.84
2022-09-30T15:24:54.334Z,100712.16
2022-09-30T15:27:25.149Z,100710.28
2022-09-30T15:30:01.442Z,100710.16
2022-09-30T15:32:33.626Z,100709.50
2022-09-30T15:35:09.263Z,100703.88
2022-09-30T15:37:38.386Z,100712.28
2022-09-30T15:40:33.819Z,100709.56
2022-09-30T15:43:06.826Z,100709.72
2022-09-30T15:45:39.390Z,100701.63
2022-09-30T15:48:36.433Z,100698.66
2022-09-30T15:51:43.466Z,100697.28
2022-09-30T15:54:34.996Z,100709.03
2022-09-30T15:57:26.180Z,100708.44
2022-09-30T16:00:07.479Z,100700.63
2022-09-30T16:02:37.826Z,100701.34
2022-09-30T16:05:08.004Z,100693.88
2022-09-30T16:07:38.449Z,100698.25
2022-09-30T16:10:09.461Z,100699.72
2022-09-30T16:12:38.919Z,100702.50
2022-09-30T16:15:14.419Z,100703.47
2022-09-30T16:17:49.184Z,100702.13
2022-09-30T16:20:24.699Z,100703.59
2022-09-30T16:22:56.616Z,100709.81
2022-09-30T16:25:30.083Z,100709.53
2022-09-30T16:28:02.261Z,100714.09
2022-09-30T16:30:33.090Z,100712.84
2022-09-30T16:33:07.056Z,100717.44
2022-09-30T16:35:36.162Z,100712.41
2022-09-30T16:38:08.095Z,100713.66
2022-09-30T16:40:38.002Z,100719.69
2022-09-30T16:43:07.887Z,100722.94
2022-09-30T16:45:37.760Z,100716.91
2022-09-30T16:48:15.032Z,100704.63
2022-09-30T16:50:48.660Z,100705.25
2022-09-30T16:53:19.078Z,100705.81
2022-09-30T16:55:48.249Z,100711.94
2022-09-30T16:58:17.315Z,100704.50
2022-09-30T17:00:46.497Z,100707.13
2022-09-30T17:03:17.853Z,100709.25
2022-09-30T17:05:53.379Z,100698.94
2022-09-30T17:08:24.859Z,100700.03
2022-09-30T17:10:54.155Z,100713.75
2022-09-30T17:13:23.804Z,100708.38
2022-09-30T17:15:54.909Z,100709.66
2022-09-30T17:18:24.114Z,100705.41
2022-09-30T17:20:53.667Z,100708.03
2022-09-30T17:23:25.810Z,100719.78
2022-09-30T17:25:55.203Z,100725.09
2022-09-30T17:28:24.483Z,100723.78
2022-09-30T17:30:54.015Z,100726.88
2022-09-30T17:33:22.992Z,100721.88
2022-09-30T17:36:00.335Z,100718.00
2022-09-30T17:38:31.630Z,100728.66
2022-09-30T17:41:22.266Z,100725.44
2022-09-30T17:43:51.482Z,100721.44
2022-09-30T17:46:23.542Z,100724.63
2022-09-30T17:48:57.132Z,100729.88
2022-09-30T17:51:26.891Z,100723.94
2022-09-30T17:53:57.142Z,100723.09
2022-09-30T17:56:26.420Z,100722.53
2022-09-30T17:58:55.430Z,100714.22
2022-09-30T18:01:24.652Z,100721.41
2022-09-30T18:03:53.951Z,100718.38
2022-09-30T18:06:22.973Z,100714.31
2022-09-30T18:08:52.595Z,100721.28
2022-09-30T18:11:24.036Z,100718.22
2022-09-30T18:13:58.030Z,100721.50
2022-09-30T18:16:30.293Z,100720.88
2022-09-30T18:19:01.107Z,100720.06
2022-09-30T18:21:31.112Z,100724.53
2022-09-30T18:24:01.464Z,100727.94
2022-09-30T18:26:34.965Z,100725.69
2022-09-30T18:29:06.130Z,100719.09
2022-09-30T18:31:37.345Z,100712.94
2022-09-30T18:34:08.498Z,100709.19
2022-09-30T18:36:40.972Z,100717.56
2022-09-30T18:39:10.128Z,100715.88
2022-09-30T18:41:45.727Z,100717.25
2022-09-30T18:44:15.375Z,100726.59
2022-09-30T18:46:44.396Z,100712.00
2022-09-30T18:49:13.942Z,100721.13
2022-09-30T18:51:42.929Z,100710.16
2022-09-30T18:54:13.235Z,100711.06
2022-09-30T18:56:46.310Z,100702.75
2022-09-30T18:59:18.302Z,100706.06
2022-09-30T19:01:49.746Z,100702.75
2022-09-30T19:04:18.808Z,100697.44
2022-09-30T19:06:48.155Z,100687.09
2022-09-30T19:09:17.542Z,100687.69
2022-09-30T19:11:49.216Z,100685.94
2022-09-30T19:14:18.271Z,100687.59
2022-09-30T19:16:47.252Z,100697.81
2022-09-30T19:19:20.406Z,100696.41
2022-09-30T19:21:50.135Z,100691.88
2022-09-30T19:24:20.385Z,100698.09
2022-09-30T19:26:52.381Z,100695.72
2022-09-30T19:29:21.318Z,100698.88
2022-09-30T19:31:50.350Z,100688.56
2022-09-30T19:34:30.894Z,100695.41
2022-09-30T19:37:00.499Z,100683.84
2022-09-30T19:39:41.589Z,100683.28
2022-09-30T19:42:18.198Z,100677.94
2022-09-30T19:44:47.429Z,100681.47
2022-09-30T19:47:18.693Z,100676.94
2022-09-30T19:49:47.698Z,100669.66
2022-09-30T19:52:21.944Z,100671.56
2022-09-30T19:54:52.245Z,100670.41
2022-09-30T19:57:23.502Z,100669.00
2022-09-30T19:59:53.297Z,100662.88
2022-09-30T20:02:23.156Z,100652.78
2022-09-30T20:04:53.827Z,100654.69
2022-09-30T20:07:22.756Z,100654.19
2022-09-30T20:09:52.320Z,100649.34
2022-09-30T20:12:22.825Z,100643.84
2022-09-30T20:15:09.185Z,100647.09
2022-09-30T20:17:38.379Z,100644.53
2022-09-30T20:20:26.155Z,100643.81
2022-09-30T20:22:55.709Z,100642.75
2022-09-30T20:25:24.750Z,100645.25
2022-09-30T20:27:55.243Z,100645.25
2022-09-30T20:30:24.965Z,100642.31
2022-09-30T20:32:54.620Z,100635.78
2022-09-30T20:35:23.697Z,100631.97
2022-09-30T20:37:54.030Z,100634.34
2022-09-30T20:40:23.430Z,100636.75
2022-09-30T20:42:56.045Z,100637.00
2022-09-30T20:45:28.414Z,100633.44
2022-09-30T20:47:57.473Z,100634.03
2022-09-30T20:50:39.406Z,100639.13
2022-09-30T20:53:11.335Z,100637.72
2022-09-30T20:55:43.558Z,100630.31
2022-09-30T20:58:14.627Z,100629.47
2022-09-30T21:00:44.801Z,100631.28
2022-09-30T21:03:15.055Z,100614.28
2022-09-30T21:05:53.497Z,100619.88
2022-09-30T21:08:23.130Z,100623.44
2022-09-30T21:10:52.426Z,100616.94
2022-09-30T21:13:22.814Z,100614.59
2022-09-30T21:16:02.327Z,100624.69
2022-09-30T21:18:33.312Z,100619.94
2022-09-30T21:21:07.418Z,100625.19
2022-09-30T21:23:37.631Z,100614.00
2022-09-30T21:26:09.948Z,100619.22
2022-09-30T21:28:40.598Z,100616.03
2022-09-30T21:31:16.450Z,100605.31
2022-09-30T21:33:45.687Z,100605.22
2022-09-30T21:36:14.909Z,100605.31
2022-09-30T21:38:44.322Z,100599.41
2022-09-30T21:41:13.286Z,100597.88
2022-09-30T21:43:44.786Z,100587.91
2022-09-30T21:46:15.739Z,100588.63
2022-09-30T21:48:45.455Z,100587.16
2022-09-30T21:51:14.717Z,100580.38
2022-09-30T21:53:43.779Z,100581.09
2022-09-30T21:56:12.699Z,100580.75
2022-09-30T21:58:43.119Z,100579.44
2022-09-30T22:01:12.191Z,100578.50
2022-09-30T22:03:41.557Z,100572.09
2022-09-30T22:06:12.692Z,100568.50
2022-09-30T22:08:41.778Z,100564.69
2022-09-30T22:11:12.624Z,100566.25
2022-09-30T22:13:45.328Z,100562.44
2022-09-30T22:16:15.698Z,100560.88
2022-09-30T22:18:45.019Z,100563.66
2022-09-30T22:21:15.489Z,100564.69
2022-09-30T22:23:46.864Z,100558.66
2022-09-30T22:26:17.692Z,100552.47
2022-09-30T22:28:49.455Z,100557.69
2022-09-30T22:31:20.179Z,100554.84
2022-09-30T22:34:22.515Z,100556.50
2022-09-30T22:37:09.685Z,100549.84
2022-09-30T22:39:38.626Z,100550.47
2022-09-30T22:42:08.263Z,100541.19
2022-09-30T22:44:39.318Z,100536.94
2022-09-30T22:47:12.346Z,100538.44
2022-09-30T22:49:41.452Z,100540.59
2022-09-30T22:52:10.748Z,100526.44
2022-09-30T22:54:39.707Z,100539.81
2022-09-30T22:57:09.063Z,100530.56
2022-09-30T22:59:41.646Z,100522.81
2022-09-30T23:02:10.533Z,100523.28
2022-09-30T23:04:39.513Z,100509.22
2022-09-30T23:07:08.478Z,100514.78
2022-09-30T23:09:37.439Z,100512.56
2022-09-30T23:12:06.394Z,100513.00
2022-09-30T23:14:35.404Z,100508.47
2022-09-30T23:17:05.750Z,100511.53
2022-09-30T23:19:34.713Z,100505.28
2022-09-30T23:22:03.782Z,100498.06
2022-09-30T23:24:32.727Z,100496.72
2022-09-30T23:27:02.206Z,100491.06
2022-09-30T23:29:31.258Z,100493.41
2022-09-30T23:32:00.275Z,100490.81
2022-09-30T23:34:31.018Z,100483.06
2022-09-30T23:37:00.326Z,100484.47
2022-09-30T23:39:30.657Z,100468.22
2022-09-30T23:41:59.519Z,100469.31
2022-09-30T23:44:28.462Z,100475.50
2022-09-30T23:47:14.975Z,100456.34
2022-09-30T23:49:46.183Z,100463.63
2022-09-30T23:52:15.579Z,100459.75
2022-09-30T23:54:45.249Z,100453.81
2022-09-30T23:57:14.220Z,100451.06
2022-09-30T23:59:43.168Z,100449.41
